sensor_id;sensor_type;location;lat;lon;timestamp;P1;durP1;ratioP1;P2;durP2;ratioP2
42006;SDS011;27696;42.704;23.304;2023-02-28T00:00:11;25.58;;;19.20;;
42006;SDS011;27696;42.704;23.304;2023-02-28T00:02:38;23.73;;;18.35;;
42006;SDS011;27696;42.704;23.304;2023-02-28T00:05:05;24.40;;;19.75;;
42006;SDS011;27696;42.704;23.304;2023-02-28T00:07:31;22.73;;;18.02;;
42006;SDS011;27696;42.704;23.304;2023-02-28T00:09:56;20.77;;;17.50;;
42006;SDS011;27696;42.704;23.304;2023-02-28T00:12:22;22.40;;;17.20;;
42006;SDS011;27696;42.704;23.304;2023-02-28T00:14:48;21.70;;;17.52;;
42006;SDS011;27696;42.704;23.304;2023-02-28T00:17:13;23.02;;;18.15;;
42006;SDS011;27696;42.704;23.304;2023-02-28T00:19:39;24.35;;;17.40;;
42006;SDS011;27696;42.704;23.304;2023-02-28T00:22:04;20.73;;;17.10;;
42006;SDS011;27696;42.704;23.304;2023-02-28T00:24:30;22.63;;;16.73;;
42006;SDS011;27696;42.704;23.304;2023-02-28T00:26:56;21.95;;;18.27;;
42006;SDS011;27696;42.704;23.304;2023-02-28T00:29:21;22.55;;;17.20;;
42006;SDS011;27696;42.704;23.304;2023-02-28T00:31:46;22.85;;;17.23;;
42006;SDS011;27696;42.704;23.304;2023-02-28T00:34:12;24.77;;;17.90;;
42006;SDS011;27696;42.704;23.304;2023-02-28T00:36:37;29.27;;;20.58;;
42006;SDS011;27696;42.704;23.304;2023-02-28T00:39:03;28.80;;;22.50;;
42006;SDS011;27696;42.704;23.304;2023-02-28T00:41:28;33.05;;;22.67;;
42006;SDS011;27696;42.704;23.304;2023-02-28T00:43:54;30.90;;;22.50;;
42006;SDS011;27696;42.704;23.304;2023-02-28T00:46:19;33.55;;;22.02;;
42006;SDS011;27696;42.704;23.304;2023-02-28T00:48:44;29.08;;;22.85;;
42006;SDS011;27696;42.704;23.304;2023-02-28T00:51:10;28.15;;;21.65;;
42006;SDS011;27696;42.704;23.304;2023-02-28T00:53:35;31.63;;;23.08;;
42006;SDS011;27696;42.704;23.304;2023-02-28T00:56:01;31.92;;;24.02;;
42006;SDS011;27696;42.704;23.304;2023-02-28T00:58:26;32.53;;;22.95;;
42006;SDS011;27696;42.704;23.304;2023-02-28T01:00:52;32.95;;;23.30;;
42006;SDS011;27696;42.704;23.304;2023-02-28T01:03:19;31.67;;;24.27;;
42006;SDS011;27696;42.704;23.304;2023-02-28T01:05:45;33.65;;;25.52;;
42006;SDS011;27696;42.704;23.304;2023-02-28T01:08:11;32.22;;;23.30;;
42006;SDS011;27696;42.704;23.304;2023-02-28T01:10:37;30.05;;;22.95;;
42006;SDS011;27696;42.704;23.304;2023-02-28T01:13:03;27.67;;;22.08;;
42006;SDS011;27696;42.704;23.304;2023-02-28T01:15:29;31.80;;;23.67;;
42006;SDS011;27696;42.704;23.304;2023-02-28T01:17:54;33.20;;;24.45;;
42006;SDS011;27696;42.704;23.304;2023-02-28T01:20:19;32.28;;;24.75;;
42006;SDS011;27696;42.704;23.304;2023-02-28T01:22:45;34.85;;;26.48;;
42006;SDS011;27696;42.704;23.304;2023-02-28T01:25:11;36.72;;;26.52;;
42006;SDS011;27696;42.704;23.304;2023-02-28T01:27:37;37.33;;;27.45;;
42006;SDS011;27696;42.704;23.304;2023-02-28T01:30:04;42.83;;;29.30;;
42006;SDS011;27696;42.704;23.304;2023-02-28T01:32:30;40.95;;;29.08;;
42006;SDS011;27696;42.704;23.304;2023-02-28T01:34:56;40.20;;;28.40;;
42006;SDS011;27696;42.704;23.304;2023-02-28T01:37:21;37.20;;;26.38;;
42006;SDS011;27696;42.704;23.304;2023-02-28T01:39:47;34.70;;;25.25;;
42006;SDS011;27696;42.704;23.304;2023-02-28T01:42:12;32.10;;;22.92;;
42006;SDS011;27696;42.704;23.304;2023-02-28T01:47:22;34.53;;;20.73;;
42006;SDS011;27696;42.704;23.304;2023-02-28T01:49:48;32.63;;;21.60;;
42006;SDS011;27696;42.704;23.304;2023-02-28T01:52:16;32.42;;;21.13;;
42006;SDS011;27696;42.704;23.304;2023-02-28T01:54:43;32.22;;;21.13;;
42006;SDS011;27696;42.704;23.304;2023-02-28T01:57:11;31.55;;;21.80;;
42006;SDS011;27696;42.704;23.304;2023-02-28T01:59:46;29.77;;;20.35;;
42006;SDS011;27696;42.704;23.304;2023-02-28T02:02:14;30.42;;;20.95;;
42006;SDS011;27696;42.704;23.304;2023-02-28T02:04:42;28.95;;;20.23;;
42006;SDS011;27696;42.704;23.304;2023-02-28T02:07:16;31.05;;;20.50;;
42006;SDS011;27696;42.704;23.304;2023-02-28T02:09:41;31.67;;;21.88;;
42006;SDS011;27696;42.704;23.304;2023-02-28T02:12:11;32.47;;;21.23;;
42006;SDS011;27696;42.704;23.304;2023-02-28T02:17:40;38.65;;;23.75;;
42006;SDS011;27696;42.704;23.304;2023-02-28T02:26:03;35.22;;;23.65;;
42006;SDS011;27696;42.704;23.304;2023-02-28T02:28:54;37.33;;;23.77;;
42006;SDS011;27696;42.704;23.304;2023-02-28T02:34:32;39.40;;;24.85;;
42006;SDS011;27696;42.704;23.304;2023-02-28T02:42:35;47.08;;;27.33;;
42006;SDS011;27696;42.704;23.304;2023-02-28T02:46:10;42.55;;;26.00;;
42006;SDS011;27696;42.704;23.304;2023-02-28T02:48:18;44.85;;;26.30;;
42006;SDS011;27696;42.704;23.304;2023-02-28T02:50:46;42.58;;;25.70;;
42006;SDS011;27696;42.704;23.304;2023-02-28T02:53:15;38.72;;;24.05;;
42006;SDS011;27696;42.704;23.304;2023-02-28T02:55:43;41.80;;;25.80;;
42006;SDS011;27696;42.704;23.304;2023-02-28T02:58:13;41.40;;;26.05;;
42006;SDS011;27696;42.704;23.304;2023-02-28T03:00:45;43.88;;;25.67;;
42006;SDS011;27696;42.704;23.304;2023-02-28T03:03:15;42.08;;;26.05;;
42006;SDS011;27696;42.704;23.304;2023-02-28T03:05:47;39.95;;;25.08;;
42006;SDS011;27696;42.704;23.304;2023-02-28T03:08:13;38.92;;;24.23;;
42006;SDS011;27696;42.704;23.304;2023-02-28T03:10:43;39.08;;;25.00;;
42006;SDS011;27696;42.704;23.304;2023-02-28T03:21:34;40.80;;;25.02;;
42006;SDS011;27696;42.704;23.304;2023-02-28T03:26:29;36.55;;;23.58;;
42006;SDS011;27696;42.704;23.304;2023-02-28T03:29:00;37.42;;;23.35;;
42006;SDS011;27696;42.704;23.304;2023-02-28T03:31:38;34.58;;;22.98;;
42006;SDS011;27696;42.704;23.304;2023-02-28T03:36:55;35.63;;;22.02;;
42006;SDS011;27696;42.704;23.304;2023-02-28T03:39:24;35.38;;;22.08;;
42006;SDS011;27696;42.704;23.304;2023-02-28T03:41:57;40.85;;;22.65;;
42006;SDS011;27696;42.704;23.304;2023-02-28T03:44:26;38.88;;;24.05;;
42006;SDS011;27696;42.704;23.304;2023-02-28T03:49:54;45.13;;;26.55;;
42006;SDS011;27696;42.704;23.304;2023-02-28T03:52:24;44.90;;;26.80;;
42006;SDS011;27696;42.704;23.304;2023-02-28T03:54:53;44.28;;;27.63;;
42006;SDS011;27696;42.704;23.304;2023-02-28T04:00:05;38.03;;;24.90;;
42006;SDS011;27696;42.704;23.304;2023-02-28T04:02:38;32.17;;;22.17;;
42006;SDS011;27696;42.704;23.304;2023-02-28T04:05:04;30.17;;;19.90;;
42006;SDS011;27696;42.704;23.304;2023-02-28T04:07:30;33.58;;;21.73;;
42006;SDS011;27696;42.704;23.304;2023-02-28T04:09:56;30.42;;;20.77;;
42006;SDS011;27696;42.704;23.304;2023-02-28T04:12:22;30.13;;;20.65;;
42006;SDS011;27696;42.704;23.304;2023-02-28T04:14:48;33.35;;;22.85;;
42006;SDS011;27696;42.704;23.304;2023-02-28T04:17:14;31.52;;;22.55;;
42006;SDS011;27696;42.704;23.304;2023-02-28T04:19:40;33.67;;;20.75;;
42006;SDS011;27696;42.704;23.304;2023-02-28T04:22:05;34.08;;;22.98;;
42006;SDS011;27696;42.704;23.304;2023-02-28T04:24:31;34.65;;;22.73;;
42006;SDS011;27696;42.704;23.304;2023-02-28T04:26:57;36.30;;;22.83;;
42006;SDS011;27696;42.704;23.304;2023-02-28T04:29:24;34.65;;;21.50;;
42006;SDS011;27696;42.704;23.304;2023-02-28T04:31:51;37.30;;;22.20;;
42006;SDS011;27696;42.704;23.304;2023-02-28T04:34:22;32.85;;;21.77;;
42006;SDS011;27696;42.704;23.304;2023-02-28T04:36:48;35.75;;;22.63;;
42006;SDS011;27696;42.704;23.304;2023-02-28T04:39:15;34.25;;;23.08;;
42006;SDS011;27696;42.704;23.304;2023-02-28T04:41:43;41.58;;;25.20;;
42006;SDS011;27696;42.704;23.304;2023-02-28T04:44:09;39.35;;;26.33;;
42006;SDS011;27696;42.704;23.304;2023-02-28T04:46:34;43.92;;;27.15;;
42006;SDS011;27696;42.704;23.304;2023-02-28T04:49:00;43.05;;;27.63;;
42006;SDS011;27696;42.704;23.304;2023-02-28T04:51:25;44.78;;;26.98;;
42006;SDS011;27696;42.704;23.304;2023-02-28T04:53:51;39.45;;;26.63;;
42006;SDS011;27696;42.704;23.304;2023-02-28T04:56:17;41.55;;;24.33;;
42006;SDS011;27696;42.704;23.304;2023-02-28T04:58:43;43.28;;;26.15;;
42006;SDS011;27696;42.704;23.304;2023-02-28T05:01:20;44.15;;;26.20;;
42006;SDS011;27696;42.704;23.304;2023-02-28T05:03:49;43.05;;;26.67;;
42006;SDS011;27696;42.704;23.304;2023-02-28T05:06:15;45.35;;;27.55;;
42006;SDS011;27696;42.704;23.304;2023-02-28T05:08:41;49.45;;;28.70;;
42006;SDS011;27696;42.704;23.304;2023-02-28T05:11:12;54.17;;;31.52;;
42006;SDS011;27696;42.704;23.304;2023-02-28T05:13:39;52.95;;;29.38;;
42006;SDS011;27696;42.704;23.304;2023-02-28T05:16:05;58.60;;;34.08;;
42006;SDS011;27696;42.704;23.304;2023-02-28T05:18:30;61.05;;;33.90;;
42006;SDS011;27696;42.704;23.304;2023-02-28T05:20:56;58.17;;;32.58;;
42006;SDS011;27696;42.704;23.304;2023-02-28T05:23:21;58.60;;;33.97;;
42006;SDS011;27696;42.704;23.304;2023-02-28T05:25:47;67.57;;;36.65;;
42006;SDS011;27696;42.704;23.304;2023-02-28T05:28:13;67.47;;;36.95;;
42006;SDS011;27696;42.704;23.304;2023-02-28T05:30:39;70.50;;;37.30;;
42006;SDS011;27696;42.704;23.304;2023-02-28T05:33:04;69.78;;;38.35;;
42006;SDS011;27696;42.704;23.304;2023-02-28T05:35:30;72.85;;;41.78;;
42006;SDS011;27696;42.704;23.304;2023-02-28T05:37:55;81.60;;;43.55;;
42006;SDS011;27696;42.704;23.304;2023-02-28T05:40:20;89.15;;;47.42;;
42006;SDS011;27696;42.704;23.304;2023-02-28T05:42:46;87.50;;;46.00;;
42006;SDS011;27696;42.704;23.304;2023-02-28T05:45:12;87.35;;;46.35;;
42006;SDS011;27696;42.704;23.304;2023-02-28T05:47:37;80.65;;;45.08;;
42006;SDS011;27696;42.704;23.304;2023-02-28T05:50:03;74.47;;;42.88;;
42006;SDS011;27696;42.704;23.304;2023-02-28T05:52:29;79.53;;;43.42;;
42006;SDS011;27696;42.704;23.304;2023-02-28T05:54:57;76.93;;;41.80;;
42006;SDS011;27696;42.704;23.304;2023-02-28T05:57:22;74.55;;;42.50;;
42006;SDS011;27696;42.704;23.304;2023-02-28T05:59:48;76.95;;;42.97;;
42006;SDS011;27696;42.704;23.304;2023-02-28T06:02:14;75.25;;;42.78;;
42006;SDS011;27696;42.704;23.304;2023-02-28T06:04:41;78.75;;;43.35;;
42006;SDS011;27696;42.704;23.304;2023-02-28T06:07:07;76.15;;;42.53;;
42006;SDS011;27696;42.704;23.304;2023-02-28T06:09:32;80.03;;;44.42;;
42006;SDS011;27696;42.704;23.304;2023-02-28T06:11:58;74.40;;;43.40;;
42006;SDS011;27696;42.704;23.304;2023-02-28T06:14:24;75.13;;;42.92;;
42006;SDS011;27696;42.704;23.304;2023-02-28T06:16:50;73.68;;;41.80;;
42006;SDS011;27696;42.704;23.304;2023-02-28T06:19:16;73.57;;;39.55;;
42006;SDS011;27696;42.704;23.304;2023-02-28T06:21:41;73.43;;;39.83;;
42006;SDS011;27696;42.704;23.304;2023-02-28T06:24:07;68.50;;;37.88;;
42006;SDS011;27696;42.704;23.304;2023-02-28T06:26:33;64.63;;;37.78;;
42006;SDS011;27696;42.704;23.304;2023-02-28T06:28:58;62.75;;;36.90;;
42006;SDS011;27696;42.704;23.304;2023-02-28T06:31:25;60.92;;;37.00;;
42006;SDS011;27696;42.704;23.304;2023-02-28T06:33:51;67.50;;;40.90;;
42006;SDS011;27696;42.704;23.304;2023-02-28T06:36:17;136.80;;;94.43;;
42006;SDS011;27696;42.704;23.304;2023-02-28T06:38:43;76.28;;;45.08;;
42006;SDS011;27696;42.704;23.304;2023-02-28T06:41:09;63.80;;;37.03;;
42006;SDS011;27696;42.704;23.304;2023-02-28T06:43:36;116.22;;;80.00;;
42006;SDS011;27696;42.704;23.304;2023-02-28T06:46:07;64.88;;;38.30;;
42006;SDS011;27696;42.704;23.304;2023-02-28T06:48:34;68.47;;;40.50;;
42006;SDS011;27696;42.704;23.304;2023-02-28T06:51:03;94.93;;;58.35;;
42006;SDS011;27696;42.704;23.304;2023-02-28T06:53:30;84.85;;;48.42;;
42006;SDS011;27696;42.704;23.304;2023-02-28T06:55:56;75.18;;;44.72;;
42006;SDS011;27696;42.704;23.304;2023-02-28T06:58:21;74.80;;;43.50;;
42006;SDS011;27696;42.704;23.304;2023-02-28T07:00:50;75.68;;;45.42;;
42006;SDS011;27696;42.704;23.304;2023-02-28T07:03:16;72.70;;;43.65;;
42006;SDS011;27696;42.704;23.304;2023-02-28T07:05:42;72.68;;;44.33;;
42006;SDS011;27696;42.704;23.304;2023-02-28T07:08:08;61.75;;;39.53;;
42006;SDS011;27696;42.704;23.304;2023-02-28T07:10:33;66.05;;;39.55;;
42006;SDS011;27696;42.704;23.304;2023-02-28T07:12:59;61.92;;;38.55;;
42006;SDS011;27696;42.704;23.304;2023-02-28T07:15:25;65.50;;;40.95;;
42006;SDS011;27696;42.704;23.304;2023-02-28T07:17:50;61.00;;;37.00;;
42006;SDS011;27696;42.704;23.304;2023-02-28T07:20:16;61.63;;;37.78;;
42006;SDS011;27696;42.704;23.304;2023-02-28T07:22:42;62.38;;;37.22;;
42006;SDS011;27696;42.704;23.304;2023-02-28T07:25:07;62.75;;;38.22;;
42006;SDS011;27696;42.704;23.304;2023-02-28T07:27:33;60.53;;;36.83;;
42006;SDS011;27696;42.704;23.304;2023-02-28T07:29:59;59.42;;;34.40;;
42006;SDS011;27696;42.704;23.304;2023-02-28T07:32:26;50.60;;;33.35;;
42006;SDS011;27696;42.704;23.304;2023-02-28T07:34:52;50.25;;;32.72;;
42006;SDS011;27696;42.704;23.304;2023-02-28T07:37:18;58.85;;;38.95;;
42006;SDS011;27696;42.704;23.304;2023-02-28T07:39:43;47.40;;;31.15;;
42006;SDS011;27696;42.704;23.304;2023-02-28T07:42:08;68.20;;;33.67;;
42006;SDS011;27696;42.704;23.304;2023-02-28T07:44:36;99.25;;;36.40;;
42006;SDS011;27696;42.704;23.304;2023-02-28T07:47:06;68.70;;;34.33;;
42006;SDS011;27696;42.704;23.304;2023-02-28T07:49:32;48.92;;;31.05;;
42006;SDS011;27696;42.704;23.304;2023-02-28T07:51:58;52.22;;;33.58;;
42006;SDS011;27696;42.704;23.304;2023-02-28T07:54:23;50.88;;;32.47;;
42006;SDS011;27696;42.704;23.304;2023-02-28T07:56:49;46.17;;;32.60;;
42006;SDS011;27696;42.704;23.304;2023-02-28T07:59:14;48.50;;;33.33;;
42006;SDS011;27696;42.704;23.304;2023-02-28T08:01:40;52.40;;;36.33;;
42006;SDS011;27696;42.704;23.304;2023-02-28T08:04:05;47.10;;;35.22;;
42006;SDS011;27696;42.704;23.304;2023-02-28T08:06:31;52.83;;;33.90;;
42006;SDS011;27696;42.704;23.304;2023-02-28T08:08:56;49.13;;;33.13;;
42006;SDS011;27696;42.704;23.304;2023-02-28T08:11:22;48.08;;;34.60;;
42006;SDS011;27696;42.704;23.304;2023-02-28T08:13:47;47.35;;;33.25;;
42006;SDS011;27696;42.704;23.304;2023-02-28T08:16:13;50.30;;;34.20;;
42006;SDS011;27696;42.704;23.304;2023-02-28T08:18:46;45.77;;;33.37;;
42006;SDS011;27696;42.704;23.304;2023-02-28T08:21:12;43.65;;;32.53;;
42006;SDS011;27696;42.704;23.304;2023-02-28T08:23:38;43.97;;;30.83;;
42006;SDS011;27696;42.704;23.304;2023-02-28T08:26:03;41.15;;;30.92;;
42006;SDS011;27696;42.704;23.304;2023-02-28T08:28:29;46.08;;;31.27;;
42006;SDS011;27696;42.704;23.304;2023-02-28T08:30:55;44.33;;;30.95;;
42006;SDS011;27696;42.704;23.304;2023-02-28T08:33:20;44.22;;;30.35;;
42006;SDS011;27696;42.704;23.304;2023-02-28T08:35:46;40.13;;;29.75;;
42006;SDS011;27696;42.704;23.304;2023-02-28T08:38:11;46.13;;;30.27;;
42006;SDS011;27696;42.704;23.304;2023-02-28T08:40:36;41.58;;;31.75;;
42006;SDS011;27696;42.704;23.304;2023-02-28T08:43:02;44.35;;;30.13;;
42006;SDS011;27696;42.704;23.304;2023-02-28T08:45:27;41.45;;;31.02;;
42006;SDS011;27696;42.704;23.304;2023-02-28T08:47:54;41.33;;;30.48;;
42006;SDS011;27696;42.704;23.304;2023-02-28T08:50:20;48.17;;;31.30;;
42006;SDS011;27696;42.704;23.304;2023-02-28T08:52:45;43.95;;;31.08;;
42006;SDS011;27696;42.704;23.304;2023-02-28T08:55:11;47.85;;;33.15;;
42006;SDS011;27696;42.704;23.304;2023-02-28T08:57:36;51.80;;;33.03;;
42006;SDS011;27696;42.704;23.304;2023-02-28T09:00:03;47.60;;;32.33;;
42006;SDS011;27696;42.704;23.304;2023-02-28T09:02:29;53.15;;;40.22;;
42006;SDS011;27696;42.704;23.304;2023-02-28T09:04:56;63.35;;;43.30;;
42006;SDS011;27696;42.704;23.304;2023-02-28T09:07:22;58.90;;;41.90;;
42006;SDS011;27696;42.704;23.304;2023-02-28T09:09:47;61.35;;;41.80;;
42006;SDS011;27696;42.704;23.304;2023-02-28T09:12:23;58.38;;;41.47;;
42006;SDS011;27696;42.704;23.304;2023-02-28T09:14:49;59.60;;;42.70;;
42006;SDS011;27696;42.704;23.304;2023-02-28T09:17:15;58.47;;;42.22;;
42006;SDS011;27696;42.704;23.304;2023-02-28T09:19:41;56.63;;;39.88;;
42006;SDS011;27696;42.704;23.304;2023-02-28T09:22:07;56.85;;;39.58;;
42006;SDS011;27696;42.704;23.304;2023-02-28T09:24:33;59.97;;;39.58;;
42006;SDS011;27696;42.704;23.304;2023-02-28T09:26:58;58.08;;;39.25;;
42006;SDS011;27696;42.704;23.304;2023-02-28T09:29:23;57.53;;;39.75;;
42006;SDS011;27696;42.704;23.304;2023-02-28T09:31:49;57.88;;;39.70;;
42006;SDS011;27696;42.704;23.304;2023-02-28T09:34:15;64.50;;;41.13;;
42006;SDS011;27696;42.704;23.304;2023-02-28T09:36:42;61.92;;;40.60;;
42006;SDS011;27696;42.704;23.304;2023-02-28T09:39:07;64.30;;;43.55;;
42006;SDS011;27696;42.704;23.304;2023-02-28T09:41:38;64.43;;;41.85;;
42006;SDS011;27696;42.704;23.304;2023-02-28T09:44:24;60.25;;;39.25;;
42006;SDS011;27696;42.704;23.304;2023-02-28T09:46:55;53.05;;;36.17;;
42006;SDS011;27696;42.704;23.304;2023-02-28T09:49:25;61.38;;;39.50;;
42006;SDS011;27696;42.704;23.304;2023-02-28T09:52:19;64.72;;;40.00;;
42006;SDS011;27696;42.704;23.304;2023-02-28T09:54:44;56.10;;;39.45;;
42006;SDS011;27696;42.704;23.304;2023-02-28T09:59:48;60.40;;;40.85;;
42006;SDS011;27696;42.704;23.304;2023-02-28T10:05:13;51.53;;;37.13;;
42006;SDS011;27696;42.704;23.304;2023-02-28T10:10:44;46.90;;;34.38;;
42006;SDS011;27696;42.704;23.304;2023-02-28T10:16:14;49.53;;;32.13;;
42006;SDS011;27696;42.704;23.304;2023-02-28T10:18:51;43.85;;;29.58;;
42006;SDS011;27696;42.704;23.304;2023-02-28T10:21:27;38.75;;;23.38;;
42006;SDS011;27696;42.704;23.304;2023-02-28T10:23:59;28.90;;;20.42;;
42006;SDS011;27696;42.704;23.304;2023-02-28T10:26:28;29.27;;;19.00;;
42006;SDS011;27696;42.704;23.304;2023-02-28T10:28:56;31.85;;;17.92;;
42006;SDS011;27696;42.704;23.304;2023-02-28T10:31:21;30.95;;;17.98;;
42006;SDS011;27696;42.704;23.304;2023-02-28T10:33:47;31.27;;;16.42;;
42006;SDS011;27696;42.704;23.304;2023-02-28T10:36:14;32.20;;;15.82;;
42006;SDS011;27696;42.704;23.304;2023-02-28T10:38:42;25.65;;;16.02;;
42006;SDS011;27696;42.704;23.304;2023-02-28T10:43:42;31.75;;;15.80;;
42006;SDS011;27696;42.704;23.304;2023-02-28T10:48:39;29.35;;;14.85;;
42006;SDS011;27696;42.704;23.304;2023-02-28T10:51:08;26.97;;;14.00;;
42006;SDS011;27696;42.704;23.304;2023-02-28T11:01:22;26.88;;;13.73;;
42006;SDS011;27696;42.704;23.304;2023-02-28T11:04:00;26.80;;;15.02;;
42006;SDS011;27696;42.704;23.304;2023-02-28T11:06:30;23.83;;;14.50;;
42006;SDS011;27696;42.704;23.304;2023-02-28T11:11:26;33.38;;;15.15;;
42006;SDS011;27696;42.704;23.304;2023-02-28T11:13:54;25.73;;;15.50;;
42006;SDS011;27696;42.704;23.304;2023-02-28T11:16:21;33.80;;;14.95;;
42006;SDS011;27696;42.704;23.304;2023-02-28T11:18:52;31.98;;;15.90;;
42006;SDS011;27696;42.704;23.304;2023-02-28T11:21:40;33.17;;;15.02;;
42006;SDS011;27696;42.704;23.304;2023-02-28T11:26:59;26.75;;;15.07;;
42006;SDS011;27696;42.704;23.304;2023-02-28T11:29:26;31.00;;;15.73;;
42006;SDS011;27696;42.704;23.304;2023-02-28T11:34:31;26.23;;;15.23;;
42006;SDS011;27696;42.704;23.304;2023-02-28T11:36:58;34.20;;;14.73;;
42006;SDS011;27696;42.704;23.304;2023-02-28T11:39:25;28.08;;;15.10;;
42006;SDS011;27696;42.704;23.304;2023-02-28T11:52:37;27.40;;;15.10;;
42006;SDS011;27696;42.704;23.304;2023-02-28T11:55:13;24.77;;;14.85;;
42006;SDS011;27696;42.704;23.304;2023-02-28T12:00:39;32.92;;;15.18;;
42006;SDS011;27696;42.704;23.304;2023-02-28T12:03:22;28.08;;;16.17;;
42006;SDS011;27696;42.704;23.304;2023-02-28T12:09:02;28.48;;;14.63;;
42006;SDS011;27696;42.704;23.304;2023-02-28T12:11:54;23.92;;;15.00;;
42006;SDS011;27696;42.704;23.304;2023-02-28T12:27:31;38.42;;;15.15;;
42006;SDS011;27696;42.704;23.304;2023-02-28T12:30:04;26.00;;;14.25;;
42006;SDS011;27696;42.704;23.304;2023-02-28T12:32:37;28.17;;;13.70;;
42006;SDS011;27696;42.704;23.304;2023-02-28T12:35:06;25.70;;;13.98;;
42006;SDS011;27696;42.704;23.304;2023-02-28T12:37:47;29.70;;;14.85;;
42006;SDS011;27696;42.704;23.304;2023-02-28T12:40:18;27.48;;;15.35;;
42006;SDS011;27696;42.704;23.304;2023-02-28T12:42:47;23.85;;;14.38;;
42006;SDS011;27696;42.704;23.304;2023-02-28T12:45:18;31.75;;;15.25;;
42006;SDS011;27696;42.704;23.304;2023-02-28T12:47:45;26.35;;;15.02;;
42006;SDS011;27696;42.704;23.304;2023-02-28T12:50:14;32.30;;;14.52;;
42006;SDS011;27696;42.704;23.304;2023-02-28T12:52:48;27.02;;;14.73;;
42006;SDS011;27696;42.704;23.304;2023-02-28T12:58:34;30.35;;;13.15;;
42006;SDS011;27696;42.704;23.304;2023-02-28T13:04:15;35.08;;;16.15;;
42006;SDS011;27696;42.704;23.304;2023-02-28T13:09:16;27.13;;;13.90;;
42006;SDS011;27696;42.704;23.304;2023-02-28T13:11:43;39.45;;;16.10;;
42006;SDS011;27696;42.704;23.304;2023-02-28T13:14:19;37.90;;;14.10;;
42006;SDS011;27696;42.704;23.304;2023-02-28T13:19:16;31.27;;;13.65;;
42006;SDS011;27696;42.704;23.304;2023-02-28T13:21:43;28.70;;;14.25;;
42006;SDS011;27696;42.704;23.304;2023-02-28T13:24:09;31.08;;;14.38;;
42006;SDS011;27696;42.704;23.304;2023-02-28T13:29:04;29.77;;;14.75;;
42006;SDS011;27696;42.704;23.304;2023-02-28T13:34:31;30.58;;;14.18;;
42006;SDS011;27696;42.704;23.304;2023-02-28T13:47:28;32.90;;;18.83;;
42006;SDS011;27696;42.704;23.304;2023-02-28T13:50:13;71.72;;;58.67;;
42006;SDS011;27696;42.704;23.304;2023-02-28T13:52:43;34.15;;;17.23;;
42006;SDS011;27696;42.704;23.304;2023-02-28T13:55:23;41.03;;;15.00;;
42006;SDS011;27696;42.704;23.304;2023-02-28T14:05:37;41.92;;;22.95;;
42006;SDS011;27696;42.704;23.304;2023-02-28T14:08:24;24.25;;;14.77;;
42006;SDS011;27696;42.704;23.304;2023-02-28T14:10:50;30.85;;;15.68;;
42006;SDS011;27696;42.704;23.304;2023-02-28T14:16:10;21.33;;;12.32;;
42006;SDS011;27696;42.704;23.304;2023-02-28T14:18:49;26.10;;;12.70;;
42006;SDS011;27696;42.704;23.304;2023-02-28T14:27:11;37.03;;;13.73;;
42006;SDS011;27696;42.704;23.304;2023-02-28T14:35:11;31.45;;;14.05;;
42006;SDS011;27696;42.704;23.304;2023-02-28T14:37:44;27.05;;;13.30;;
42006;SDS011;27696;42.704;23.304;2023-02-28T14:40:17;26.45;;;14.13;;
42006;SDS011;27696;42.704;23.304;2023-02-28T14:42:56;26.75;;;15.45;;
42006;SDS011;27696;42.704;23.304;2023-02-28T14:45:24;27.13;;;14.30;;
42006;SDS011;27696;42.704;23.304;2023-02-28T14:47:51;25.27;;;13.73;;
42006;SDS011;27696;42.704;23.304;2023-02-28T14:50:17;29.52;;;13.60;;
42006;SDS011;27696;42.704;23.304;2023-02-28T14:52:44;25.90;;;13.55;;
42006;SDS011;27696;42.704;23.304;2023-02-28T14:55:12;26.98;;;13.68;;
42006;SDS011;27696;42.704;23.304;2023-02-28T14:57:41;30.42;;;13.88;;
42006;SDS011;27696;42.704;23.304;2023-02-28T15:02:39;24.50;;;14.07;;
42006;SDS011;27696;42.704;23.304;2023-02-28T15:07:42;28.35;;;13.07;;
42006;SDS011;27696;42.704;23.304;2023-02-28T15:13:26;33.33;;;12.90;;
42006;SDS011;27696;42.704;23.304;2023-02-28T15:18:43;24.77;;;12.27;;
42006;SDS011;27696;42.704;23.304;2023-02-28T15:21:15;35.15;;;14.93;;
42006;SDS011;27696;42.704;23.304;2023-02-28T15:23:43;30.10;;;14.00;;
42006;SDS011;27696;42.704;23.304;2023-02-28T15:26:15;30.23;;;13.35;;
42006;SDS011;27696;42.704;23.304;2023-02-28T15:28:41;26.50;;;13.48;;
42006;SDS011;27696;42.704;23.304;2023-02-28T15:31:19;23.58;;;13.10;;
42006;SDS011;27696;42.704;23.304;2023-02-28T15:33:52;23.15;;;13.63;;
42006;SDS011;27696;42.704;23.304;2023-02-28T15:36:20;30.35;;;13.00;;
42006;SDS011;27696;42.704;23.304;2023-02-28T15:38:52;35.15;;;22.45;;
42006;SDS011;27696;42.704;23.304;2023-02-28T15:41:26;26.60;;;16.58;;
42006;SDS011;27696;42.704;23.304;2023-02-28T15:49:26;27.63;;;19.15;;
42006;SDS011;27696;42.704;23.304;2023-02-28T15:51:53;24.10;;;16.05;;
42006;SDS011;27696;42.704;23.304;2023-02-28T15:54:22;24.10;;;13.63;;
42006;SDS011;27696;42.704;23.304;2023-02-28T15:56:53;23.30;;;13.05;;
42006;SDS011;27696;42.704;23.304;2023-02-28T15:59:22;20.73;;;14.85;;
42006;SDS011;27696;42.704;23.304;2023-02-28T16:04:27;22.10;;;12.98;;
42006;SDS011;27696;42.704;23.304;2023-02-28T16:09:24;18.05;;;13.00;;
42006;SDS011;27696;42.704;23.304;2023-02-28T16:11:52;22.27;;;16.98;;
42006;SDS011;27696;42.704;23.304;2023-02-28T16:14:20;91.40;;;80.93;;
42006;SDS011;27696;42.704;23.304;2023-02-28T16:16:52;25.42;;;19.45;;
42006;SDS011;27696;42.704;23.304;2023-02-28T16:19:21;20.50;;;15.73;;
42006;SDS011;27696;42.704;23.304;2023-02-28T16:21:46;17.85;;;13.48;;
42006;SDS011;27696;42.704;23.304;2023-02-28T16:24:15;21.13;;;13.00;;
42006;SDS011;27696;42.704;23.304;2023-02-28T16:26:50;17.58;;;13.10;;
42006;SDS011;27696;42.704;23.304;2023-02-28T16:31:53;18.13;;;11.68;;
42006;SDS011;27696;42.704;23.304;2023-02-28T16:34:19;17.27;;;14.95;;
42006;SDS011;27696;42.704;23.304;2023-02-28T16:36:48;18.80;;;14.70;;
42006;SDS011;27696;42.704;23.304;2023-02-28T16:39:14;17.17;;;11.70;;
42006;SDS011;27696;42.704;23.304;2023-02-28T16:41:41;17.00;;;11.05;;
42006;SDS011;27696;42.704;23.304;2023-02-28T16:44:09;17.98;;;11.88;;
42006;SDS011;27696;42.704;23.304;2023-02-28T16:46:37;21.58;;;11.68;;
42006;SDS011;27696;42.704;23.304;2023-02-28T16:49:02;19.75;;;11.13;;
42006;SDS011;27696;42.704;23.304;2023-02-28T16:51:27;13.65;;;10.20;;
42006;SDS011;27696;42.704;23.304;2023-02-28T16:53:53;16.55;;;10.75;;
42006;SDS011;27696;42.704;23.304;2023-02-28T16:56:19;13.80;;;9.98;;
42006;SDS011;27696;42.704;23.304;2023-02-28T16:58:46;16.85;;;9.80;;
42006;SDS011;27696;42.704;23.304;2023-02-28T17:01:13;13.82;;;10.05;;
42006;SDS011;27696;42.704;23.304;2023-02-28T17:03:38;16.02;;;10.98;;
42006;SDS011;27696;42.704;23.304;2023-02-28T17:06:05;13.50;;;9.38;;
42006;SDS011;27696;42.704;23.304;2023-02-28T17:08:34;16.27;;;9.52;;